sensor_id;sensor_type;location;lat;lon;timestamp;P1;durP1;ratioP1;P2;durP2;ratioP2
55212;SDS011;41083;52.932;6.674;2022-07-22T00:01:49;1.42;;;0.60;;
55212;SDS011;41083;52.932;6.674;2022-07-22T00:04:15;1.38;;;0.68;;
55212;SDS011;41083;52.932;6.674;2022-07-22T00:06:41;2.67;;;0.70;;
55212;SDS011;41083;52.932;6.674;2022-07-22T00:09:07;2.10;;;0.75;;
55212;SDS011;41083;52.932;6.674;2022-07-22T00:11:33;2.00;;;0.90;;
55212;SDS011;41083;52.932;6.674;2022-07-22T00:13:59;1.83;;;0.93;;
55212;SDS011;41083;52.932;6.674;2022-07-22T00:16:25;1.63;;;0.80;;
55212;SDS011;41083;52.932;6.674;2022-07-22T00:18:51;2.13;;;0.50;;
55212;SDS011;41083;52.932;6.674;2022-07-22T00:21:17;2.67;;;0.80;;
55212;SDS011;41083;52.932;6.674;2022-07-22T00:23:43;1.35;;;0.45;;
55212;SDS011;41083;52.932;6.674;2022-07-22T00:26:09;1.50;;;0.70;;
55212;SDS011;41083;52.932;6.674;2022-07-22T00:28:35;5.53;;;0.90;;
55212;SDS011;41083;52.932;6.674;2022-07-22T00:31:01;1.55;;;0.60;;
55212;SDS011;41083;52.932;6.674;2022-07-22T00:33:26;2.03;;;0.90;;
55212;SDS011;41083;52.932;6.674;2022-07-22T00:35:52;2.20;;;0.60;;
55212;SDS011;41083;52.932;6.674;2022-07-22T00:38:18;2.25;;;1.10;;
55212;SDS011;41083;52.932;6.674;2022-07-22T00:40:43;1.17;;;0.63;;
55212;SDS011;41083;52.932;6.674;2022-07-22T00:43:09;3.90;;;1.10;;
55212;SDS011;41083;52.932;6.674;2022-07-22T00:45:35;3.13;;;1.05;;
55212;SDS011;41083;52.932;6.674;2022-07-22T00:48:00;2.00;;;1.23;;
55212;SDS011;41083;52.932;6.674;2022-07-22T00:50:26;1.02;;;0.60;;
55212;SDS011;41083;52.932;6.674;2022-07-22T00:52:52;4.55;;;0.93;;
55212;SDS011;41083;52.932;6.674;2022-07-22T00:55:18;2.35;;;0.70;;
55212;SDS011;41083;52.932;6.674;2022-07-22T00:57:43;3.03;;;0.80;;
55212;SDS011;41083;52.932;6.674;2022-07-22T01:00:11;1.48;;;0.68;;
55212;SDS011;41083;52.932;6.674;2022-07-22T01:02:39;2.35;;;1.15;;
55212;SDS011;41083;52.932;6.674;2022-07-22T01:05:05;2.72;;;0.93;;
55212;SDS011;41083;52.932;6.674;2022-07-22T01:07:31;2.70;;;0.93;;
55212;SDS011;41083;52.932;6.674;2022-07-22T01:09:57;2.47;;;1.08;;
55212;SDS011;41083;52.932;6.674;2022-07-22T01:12:23;2.10;;;0.82;;
55212;SDS011;41083;52.932;6.674;2022-07-22T01:14:48;1.70;;;0.77;;
55212;SDS011;41083;52.932;6.674;2022-07-22T01:17:14;2.03;;;0.90;;
55212;SDS011;41083;52.932;6.674;2022-07-22T01:19:41;2.10;;;0.70;;
55212;SDS011;41083;52.932;6.674;2022-07-22T01:22:07;1.45;;;0.63;;
55212;SDS011;41083;52.932;6.674;2022-07-22T01:24:33;1.85;;;0.80;;
55212;SDS011;41083;52.932;6.674;2022-07-22T01:26:59;1.75;;;0.60;;
55212;SDS011;41083;52.932;6.674;2022-07-22T01:29:24;1.92;;;0.80;;
55212;SDS011;41083;52.932;6.674;2022-07-22T01:31:50;2.20;;;0.98;;
55212;SDS011;41083;52.932;6.674;2022-07-22T01:34:16;2.08;;;0.77;;
55212;SDS011;41083;52.932;6.674;2022-07-22T01:36:42;1.23;;;0.60;;
55212;SDS011;41083;52.932;6.674;2022-07-22T01:39:07;3.80;;;0.60;;
55212;SDS011;41083;52.932;6.674;2022-07-22T01:41:33;2.08;;;0.63;;
55212;SDS011;41083;52.932;6.674;2022-07-22T01:43:58;1.70;;;0.80;;
55212;SDS011;41083;52.932;6.674;2022-07-22T01:46:24;1.85;;;0.65;;
55212;SDS011;41083;52.932;6.674;2022-07-22T01:48:50;2.83;;;0.50;;
55212;SDS011;41083;52.932;6.674;2022-07-22T01:51:16;3.75;;;0.90;;
55212;SDS011;41083;52.932;6.674;2022-07-22T01:53:42;3.00;;;1.25;;
55212;SDS011;41083;52.932;6.674;2022-07-22T01:56:08;4.25;;;1.10;;
55212;SDS011;41083;52.932;6.674;2022-07-22T01:58:34;3.35;;;0.77;;
55212;SDS011;41083;52.932;6.674;2022-07-22T02:00:59;3.63;;;0.75;;
55212;SDS011;41083;52.932;6.674;2022-07-22T02:03:25;2.30;;;0.68;;
55212;SDS011;41083;52.932;6.674;2022-07-22T02:05:50;1.17;;;0.50;;
55212;SDS011;41083;52.932;6.674;2022-07-22T02:08:16;2.75;;;0.65;;
55212;SDS011;41083;52.932;6.674;2022-07-22T02:10:42;1.10;;;0.50;;
55212;SDS011;41083;52.932;6.674;2022-07-22T02:13:09;4.18;;;0.82;;
55212;SDS011;41083;52.932;6.674;2022-07-22T02:15:34;1.67;;;0.63;;
55212;SDS011;41083;52.932;6.674;2022-07-22T02:18:00;1.77;;;0.60;;
55212;SDS011;41083;52.932;6.674;2022-07-22T02:20:33;2.35;;;0.55;;
55212;SDS011;41083;52.932;6.674;2022-07-22T02:23:00;4.13;;;0.73;;
55212;SDS011;41083;52.932;6.674;2022-07-22T02:25:26;5.60;;;0.75;;
55212;SDS011;41083;52.932;6.674;2022-07-22T02:27:51;0.85;;;0.47;;
55212;SDS011;41083;52.932;6.674;2022-07-22T02:30:17;2.00;;;0.43;;
55212;SDS011;41083;52.932;6.674;2022-07-22T02:32:43;2.08;;;0.85;;
55212;SDS011;41083;52.932;6.674;2022-07-22T02:35:08;3.83;;;0.65;;
55212;SDS011;41083;52.932;6.674;2022-07-22T02:37:34;4.20;;;0.50;;
55212;SDS011;41083;52.932;6.674;2022-07-22T02:40:02;0.98;;;0.40;;
55212;SDS011;41083;52.932;6.674;2022-07-22T02:42:29;2.10;;;0.50;;
55212;SDS011;41083;52.932;6.674;2022-07-22T02:44:55;1.92;;;0.73;;
55212;SDS011;41083;52.932;6.674;2022-07-22T02:47:20;0.65;;;0.38;;
55212;SDS011;41083;52.932;6.674;2022-07-22T02:49:46;1.25;;;0.55;;
55212;SDS011;41083;52.932;6.674;2022-07-22T02:52:12;1.20;;;0.52;;
55212;SDS011;41083;52.932;6.674;2022-07-22T02:54:38;1.38;;;0.50;;
55212;SDS011;41083;52.932;6.674;2022-07-22T02:57:04;2.85;;;0.47;;
55212;SDS011;41083;52.932;6.674;2022-07-22T02:59:29;2.20;;;0.50;;
55212;SDS011;41083;52.932;6.674;2022-07-22T03:01:55;1.02;;;0.50;;
55212;SDS011;41083;52.932;6.674;2022-07-22T03:04:20;3.60;;;0.70;;
55212;SDS011;41083;52.932;6.674;2022-07-22T03:06:46;2.55;;;0.50;;
55212;SDS011;41083;52.932;6.674;2022-07-22T03:09:12;2.20;;;0.50;;
55212;SDS011;41083;52.932;6.674;2022-07-22T03:11:37;1.13;;;0.40;;
55212;SDS011;41083;52.932;6.674;2022-07-22T03:14:03;0.98;;;0.60;;
55212;SDS011;41083;52.932;6.674;2022-07-22T03:16:29;2.42;;;1.02;;
55212;SDS011;41083;52.932;6.674;2022-07-22T03:18:54;2.42;;;0.60;;
55212;SDS011;41083;52.932;6.674;2022-07-22T03:21:20;1.73;;;0.43;;
55212;SDS011;41083;52.932;6.674;2022-07-22T03:23:46;1.35;;;0.35;;
55212;SDS011;41083;52.932;6.674;2022-07-22T03:26:12;1.27;;;0.40;;
55212;SDS011;41083;52.932;6.674;2022-07-22T03:28:37;0.70;;;0.32;;
55212;SDS011;41083;52.932;6.674;2022-07-22T03:31:03;0.73;;;0.40;;
55212;SDS011;41083;52.932;6.674;2022-07-22T03:33:29;3.05;;;0.50;;
55212;SDS011;41083;52.932;6.674;2022-07-22T03:35:54;1.83;;;0.50;;
55212;SDS011;41083;52.932;6.674;2022-07-22T03:38:20;0.93;;;0.47;;
55212;SDS011;41083;52.932;6.674;2022-07-22T03:40:45;1.85;;;0.30;;
55212;SDS011;41083;52.932;6.674;2022-07-22T03:43:11;0.88;;;0.57;;
55212;SDS011;41083;52.932;6.674;2022-07-22T03:45:36;2.00;;;0.40;;
55212;SDS011;41083;52.932;6.674;2022-07-22T03:48:02;2.72;;;0.47;;
55212;SDS011;41083;52.932;6.674;2022-07-22T03:50:28;1.00;;;0.40;;
55212;SDS011;41083;52.932;6.674;2022-07-22T03:52:54;2.40;;;0.55;;
55212;SDS011;41083;52.932;6.674;2022-07-22T03:55:20;0.85;;;0.30;;
55212;SDS011;41083;52.932;6.674;2022-07-22T03:57:45;0.85;;;0.40;;
55212;SDS011;41083;52.932;6.674;2022-07-22T04:00:11;1.23;;;0.38;;
55212;SDS011;41083;52.932;6.674;2022-07-22T04:02:37;0.50;;;0.30;;
55212;SDS011;41083;52.932;6.674;2022-07-22T04:05:02;0.88;;;0.45;;
55212;SDS011;41083;52.932;6.674;2022-07-22T04:07:28;0.47;;;0.22;;
55212;SDS011;41083;52.932;6.674;2022-07-22T04:09:54;2.20;;;0.90;;
55212;SDS011;41083;52.932;6.674;2022-07-22T04:12:31;1.67;;;0.65;;
55212;SDS011;41083;52.932;6.674;2022-07-22T04:14:59;1.15;;;0.50;;
55212;SDS011;41083;52.932;6.674;2022-07-22T04:17:25;1.58;;;0.68;;
55212;SDS011;41083;52.932;6.674;2022-07-22T04:19:50;0.70;;;0.40;;
55212;SDS011;41083;52.932;6.674;2022-07-22T04:22:16;1.02;;;0.52;;
55212;SDS011;41083;52.932;6.674;2022-07-22T04:24:42;3.90;;;0.60;;
55212;SDS011;41083;52.932;6.674;2022-07-22T04:27:07;0.90;;;0.55;;
55212;SDS011;41083;52.932;6.674;2022-07-22T04:29:33;1.27;;;0.50;;
55212;SDS011;41083;52.932;6.674;2022-07-22T04:31:58;2.30;;;0.77;;
55212;SDS011;41083;52.932;6.674;2022-07-22T04:34:24;1.73;;;0.45;;
55212;SDS011;41083;52.932;6.674;2022-07-22T04:36:50;1.10;;;0.40;;
55212;SDS011;41083;52.932;6.674;2022-07-22T04:39:16;0.80;;;0.50;;
55212;SDS011;41083;52.932;6.674;2022-07-22T04:41:43;1.45;;;0.60;;
55212;SDS011;41083;52.932;6.674;2022-07-22T04:44:08;0.90;;;0.38;;
55212;SDS011;41083;52.932;6.674;2022-07-22T04:46:34;3.03;;;0.40;;
55212;SDS011;41083;52.932;6.674;2022-07-22T04:48:59;1.10;;;0.70;;
55212;SDS011;41083;52.932;6.674;2022-07-22T04:51:25;8.35;;;0.68;;
55212;SDS011;41083;52.932;6.674;2022-07-22T04:53:50;3.47;;;0.50;;
55212;SDS011;41083;52.932;6.674;2022-07-22T04:56:16;1.13;;;0.63;;
55212;SDS011;41083;52.932;6.674;2022-07-22T04:58:42;0.77;;;0.47;;
55212;SDS011;41083;52.932;6.674;2022-07-22T05:01:08;3.58;;;0.55;;
55212;SDS011;41083;52.932;6.674;2022-07-22T05:03:33;0.88;;;0.38;;
55212;SDS011;41083;52.932;6.674;2022-07-22T05:06:02;3.13;;;0.55;;
55212;SDS011;41083;52.932;6.674;2022-07-22T05:08:27;1.88;;;0.50;;
55212;SDS011;41083;52.932;6.674;2022-07-22T05:10:53;1.02;;;0.50;;
55212;SDS011;41083;52.932;6.674;2022-07-22T05:13:18;3.72;;;0.68;;
55212;SDS011;41083;52.932;6.674;2022-07-22T05:15:44;1.10;;;0.50;;
55212;SDS011;41083;52.932;6.674;2022-07-22T05:18:10;0.32;;;0.20;;
55212;SDS011;41083;52.932;6.674;2022-07-22T05:20:35;0.52;;;0.32;;
55212;SDS011;41083;52.932;6.674;2022-07-22T05:23:01;2.42;;;0.40;;
55212;SDS011;41083;52.932;6.674;2022-07-22T05:25:27;0.60;;;0.43;;
55212;SDS011;41083;52.932;6.674;2022-07-22T05:27:54;6.38;;;0.60;;
55212;SDS011;41083;52.932;6.674;2022-07-22T05:30:20;1.10;;;0.50;;
55212;SDS011;41083;52.932;6.674;2022-07-22T05:32:46;1.25;;;0.40;;
55212;SDS011;41083;52.932;6.674;2022-07-22T05:35:12;0.63;;;0.40;;
55212;SDS011;41083;52.932;6.674;2022-07-22T05:37:38;5.15;;;0.80;;
55212;SDS011;41083;52.932;6.674;2022-07-22T05:40:04;1.48;;;0.45;;
55212;SDS011;41083;52.932;6.674;2022-07-22T05:42:30;0.80;;;0.40;;
55212;SDS011;41083;52.932;6.674;2022-07-22T05:44:55;2.72;;;0.63;;
55212;SDS011;41083;52.932;6.674;2022-07-22T05:47:21;0.95;;;0.40;;
55212;SDS011;41083;52.932;6.674;2022-07-22T05:49:47;2.72;;;0.35;;
55212;SDS011;41083;52.932;6.674;2022-07-22T05:52:12;0.90;;;0.32;;
55212;SDS011;41083;52.932;6.674;2022-07-22T05:54:38;1.10;;;0.45;;
55212;SDS011;41083;52.932;6.674;2022-07-22T05:57:04;0.55;;;0.22;;
55212;SDS011;41083;52.932;6.674;2022-07-22T05:59:33;3.10;;;0.50;;
55212;SDS011;41083;52.932;6.674;2022-07-22T06:01:59;1.98;;;0.50;;
55212;SDS011;41083;52.932;6.674;2022-07-22T06:04:24;1.48;;;0.55;;
55212;SDS011;41083;52.932;6.674;2022-07-22T06:06:50;1.48;;;0.25;;
55212;SDS011;41083;52.932;6.674;2022-07-22T06:09:15;1.27;;;0.55;;
55212;SDS011;41083;52.932;6.674;2022-07-22T06:11:41;0.75;;;0.40;;
55212;SDS011;41083;52.932;6.674;2022-07-22T06:14:07;1.27;;;0.43;;
55212;SDS011;41083;52.932;6.674;2022-07-22T06:16:32;0.50;;;0.30;;
55212;SDS011;41083;52.932;6.674;2022-07-22T06:19:00;4.63;;;0.70;;
55212;SDS011;41083;52.932;6.674;2022-07-22T06:21:26;0.85;;;0.40;;
55212;SDS011;41083;52.932;6.674;2022-07-22T06:23:51;0.75;;;0.43;;
55212;SDS011;41083;52.932;6.674;2022-07-22T06:26:17;1.13;;;0.45;;
55212;SDS011;41083;52.932;6.674;2022-07-22T06:28:43;1.55;;;0.50;;
55212;SDS011;41083;52.932;6.674;2022-07-22T06:31:09;0.80;;;0.22;;
55212;SDS011;41083;52.932;6.674;2022-07-22T06:33:34;2.42;;;0.52;;
55212;SDS011;41083;52.932;6.674;2022-07-22T06:36:00;3.92;;;0.40;;
55212;SDS011;41083;52.932;6.674;2022-07-22T06:38:26;2.65;;;0.57;;
55212;SDS011;41083;52.932;6.674;2022-07-22T06:40:52;3.33;;;0.70;;
55212;SDS011;41083;52.932;6.674;2022-07-22T06:43:17;1.05;;;0.57;;
55212;SDS011;41083;52.932;6.674;2022-07-22T06:45:43;0.82;;;0.50;;
55212;SDS011;41083;52.932;6.674;2022-07-22T06:48:08;1.83;;;0.80;;
55212;SDS011;41083;52.932;6.674;2022-07-22T06:50:34;1.27;;;0.70;;
55212;SDS011;41083;52.932;6.674;2022-07-22T06:53:00;0.77;;;0.40;;
55212;SDS011;41083;52.932;6.674;2022-07-22T06:55:25;1.13;;;0.40;;
55212;SDS011;41083;52.932;6.674;2022-07-22T06:57:51;2.00;;;0.55;;
55212;SDS011;41083;52.932;6.674;2022-07-22T07:00:17;1.35;;;0.50;;
55212;SDS011;41083;52.932;6.674;2022-07-22T07:02:43;0.38;;;0.20;;
55212;SDS011;41083;52.932;6.674;2022-07-22T07:05:10;2.08;;;0.32;;
55212;SDS011;41083;52.932;6.674;2022-07-22T07:07:36;1.85;;;0.52;;
55212;SDS011;41083;52.932;6.674;2022-07-22T07:10:02;0.50;;;0.30;;
55212;SDS011;41083;52.932;6.674;2022-07-22T07:12:28;1.88;;;0.50;;
55212;SDS011;41083;52.932;6.674;2022-07-22T07:14:53;1.23;;;0.30;;
55212;SDS011;41083;52.932;6.674;2022-07-22T07:17:19;0.70;;;0.30;;
55212;SDS011;41083;52.932;6.674;2022-07-22T07:19:45;0.90;;;0.40;;
55212;SDS011;41083;52.932;6.674;2022-07-22T07:22:10;0.50;;;0.20;;
55212;SDS011;41083;52.932;6.674;2022-07-22T07:24:36;2.85;;;0.50;;
55212;SDS011;41083;52.932;6.674;2022-07-22T07:27:02;3.78;;;0.40;;
55212;SDS011;41083;52.932;6.674;2022-07-22T07:29:27;0.70;;;0.30;;
55212;SDS011;41083;52.932;6.674;2022-07-22T07:31:53;3.22;;;0.40;;
55212;SDS011;41083;52.932;6.674;2022-07-22T07:34:19;3.50;;;0.60;;
55212;SDS011;41083;52.932;6.674;2022-07-22T07:36:44;2.10;;;0.47;;
55212;SDS011;41083;52.932;6.674;2022-07-22T07:39:10;0.57;;;0.38;;
55212;SDS011;41083;52.932;6.674;2022-07-22T07:41:35;1.58;;;0.50;;
55212;SDS011;41083;52.932;6.674;2022-07-22T07:44:01;0.60;;;0.32;;
55212;SDS011;41083;52.932;6.674;2022-07-22T07:46:27;1.75;;;0.40;;
55212;SDS011;41083;52.932;6.674;2022-07-22T07:48:52;0.50;;;0.30;;
55212;SDS011;41083;52.932;6.674;2022-07-22T07:51:18;0.75;;;0.50;;
55212;SDS011;41083;52.932;6.674;2022-07-22T07:53:44;0.88;;;0.47;;
55212;SDS011;41083;52.932;6.674;2022-07-22T07:56:10;0.80;;;0.30;;
55212;SDS011;41083;52.932;6.674;2022-07-22T07:58:36;0.68;;;0.40;;
55212;SDS011;41083;52.932;6.674;2022-07-22T08:01:02;1.58;;;0.45;;
55212;SDS011;41083;52.932;6.674;2022-07-22T08:03:28;2.35;;;0.70;;
55212;SDS011;41083;52.932;6.674;2022-07-22T08:05:54;0.40;;;0.28;;
55212;SDS011;41083;52.932;6.674;2022-07-22T08:08:19;0.30;;;0.20;;
55212;SDS011;41083;52.932;6.674;2022-07-22T08:10:45;2.20;;;0.40;;
55212;SDS011;41083;52.932;6.674;2022-07-22T08:13:11;0.70;;;0.40;;
55212;SDS011;41083;52.932;6.674;2022-07-22T08:15:37;2.92;;;0.65;;
55212;SDS011;41083;52.932;6.674;2022-07-22T08:18:03;0.60;;;0.30;;
55212;SDS011;41083;52.932;6.674;2022-07-22T08:20:28;1.00;;;0.77;;
55212;SDS011;41083;52.932;6.674;2022-07-22T08:22:54;0.65;;;0.30;;
55212;SDS011;41083;52.932;6.674;2022-07-22T08:25:20;2.30;;;0.40;;
55212;SDS011;41083;52.932;6.674;2022-07-22T08:27:46;0.77;;;0.38;;
55212;SDS011;41083;52.932;6.674;2022-07-22T08:30:12;1.83;;;0.50;;
55212;SDS011;41083;52.932;6.674;2022-07-22T08:32:38;3.20;;;0.50;;
55212;SDS011;41083;52.932;6.674;2022-07-22T08:35:04;1.75;;;0.45;;
55212;SDS011;41083;52.932;6.674;2022-07-22T08:37:31;1.08;;;0.35;;
55212;SDS011;41083;52.932;6.674;2022-07-22T08:39:56;0.32;;;0.22;;
55212;SDS011;41083;52.932;6.674;2022-07-22T08:42:23;0.32;;;0.20;;
55212;SDS011;41083;52.932;6.674;2022-07-22T08:44:50;1.13;;;0.30;;
55212;SDS011;41083;52.932;6.674;2022-07-22T08:47:21;0.70;;;0.40;;
55212;SDS011;41083;52.932;6.674;2022-07-22T08:49:48;2.00;;;0.47;;
55212;SDS011;41083;52.932;6.674;2022-07-22T08:52:14;2.42;;;0.40;;
55212;SDS011;41083;52.932;6.674;2022-07-22T08:54:39;0.40;;;0.30;;
55212;SDS011;41083;52.932;6.674;2022-07-22T08:57:05;0.30;;;0.22;;
55212;SDS011;41083;52.932;6.674;2022-07-22T08:59:31;0.98;;;0.43;;
55212;SDS011;41083;52.932;6.674;2022-07-22T09:02:04;1.48;;;0.30;;
55212;SDS011;41083;52.932;6.674;2022-07-22T09:04:31;1.98;;;0.40;;
55212;SDS011;41083;52.932;6.674;2022-07-22T09:06:57;1.65;;;0.20;;
55212;SDS011;41083;52.932;6.674;2022-07-22T09:09:33;1.10;;;0.50;;
55212;SDS011;41083;52.932;6.674;2022-07-22T09:14:48;2.05;;;0.75;;
55212;SDS011;41083;52.932;6.674;2022-07-22T09:17:22;0.77;;;0.30;;
55212;SDS011;41083;52.932;6.674;2022-07-22T09:19:54;0.43;;;0.20;;
55212;SDS011;41083;52.932;6.674;2022-07-22T09:22:30;1.45;;;0.40;;
55212;SDS011;41083;52.932;6.674;2022-07-22T09:24:58;0.52;;;0.30;;
55212;SDS011;41083;52.932;6.674;2022-07-22T09:27:25;0.73;;;0.32;;
55212;SDS011;41083;52.932;6.674;2022-07-22T09:29:51;0.35;;;0.30;;
55212;SDS011;41083;52.932;6.674;2022-07-22T09:32:18;0.52;;;0.25;;
55212;SDS011;41083;52.932;6.674;2022-07-22T09:34:44;0.68;;;0.30;;
55212;SDS011;41083;52.932;6.674;2022-07-22T09:37:10;1.45;;;0.30;;
55212;SDS011;41083;52.932;6.674;2022-07-22T09:39:36;1.55;;;0.40;;
55212;SDS011;41083;52.932;6.674;2022-07-22T09:42:04;1.25;;;0.40;;
55212;SDS011;41083;52.932;6.674;2022-07-22T09:44:33;2.40;;;0.60;;
55212;SDS011;41083;52.932;6.674;2022-07-22T09:46:59;0.77;;;0.43;;
55212;SDS011;41083;52.932;6.674;2022-07-22T09:49:34;1.58;;;0.40;;
55212;SDS011;41083;52.932;6.674;2022-07-22T09:52:04;0.40;;;0.20;;
55212;SDS011;41083;52.932;6.674;2022-07-22T09:54:30;1.73;;;0.45;;
55212;SDS011;41083;52.932;6.674;2022-07-22T09:56:56;0.60;;;0.40;;
55212;SDS011;41083;52.932;6.674;2022-07-22T09:59:22;1.33;;;0.30;;
55212;SDS011;41083;52.932;6.674;2022-07-22T10:01:49;0.68;;;0.30;;
55212;SDS011;41083;52.932;6.674;2022-07-22T10:04:19;0.43;;;0.30;;
55212;SDS011;41083;52.932;6.674;2022-07-22T10:06:46;0.80;;;0.40;;
55212;SDS011;41083;52.932;6.674;2022-07-22T10:09:13;0.28;;;0.20;;
55212;SDS011;41083;52.932;6.674;2022-07-22T10:11:41;0.70;;;0.30;;
55212;SDS011;41083;52.932;6.674;2022-07-22T10:14:11;0.43;;;0.30;;
55212;SDS011;41083;52.932;6.674;2022-07-22T10:16:38;1.60;;;0.70;;
55212;SDS011;41083;52.932;6.674;2022-07-22T10:19:04;1.15;;;0.40;;
55212;SDS011;41083;52.932;6.674;2022-07-22T10:21:31;1.98;;;0.32;;
55212;SDS011;41083;52.932;6.674;2022-07-22T10:26:46;0.65;;;0.40;;
55212;SDS011;41083;52.932;6.674;2022-07-22T10:29:26;1.85;;;0.40;;
55212;SDS011;41083;52.932;6.674;2022-07-22T10:32:34;2.20;;;0.40;;
55212;SDS011;41083;52.932;6.674;2022-07-22T10:34:41;1.23;;;0.50;;
55212;SDS011;41083;52.932;6.674;2022-07-22T10:40:10;5.65;;;0.68;;
55212;SDS011;41083;52.932;6.674;2022-07-22T10:48:18;1.23;;;0.65;;
55212;SDS011;41083;52.932;6.674;2022-07-22T10:50:48;2.97;;;0.52;;
55212;SDS011;41083;52.932;6.674;2022-07-22T10:53:22;0.45;;;0.28;;
55212;SDS011;41083;52.932;6.674;2022-07-22T11:01:00;3.40;;;0.30;;
55212;SDS011;41083;52.932;6.674;2022-07-22T11:03:32;1.02;;;0.20;;
55212;SDS011;41083;52.932;6.674;2022-07-22T11:09:01;0.98;;;0.32;;
55212;SDS011;41083;52.932;6.674;2022-07-22T11:11:32;0.50;;;0.35;;
55212;SDS011;41083;52.932;6.674;2022-07-22T11:14:11;2.13;;;0.40;;
55212;SDS011;41083;52.932;6.674;2022-07-22T11:17:00;1.27;;;0.40;;
55212;SDS011;41083;52.932;6.674;2022-07-22T11:19:30;0.63;;;0.22;;
55212;SDS011;41083;52.932;6.674;2022-07-22T11:21:58;0.40;;;0.20;;
55212;SDS011;41083;52.932;6.674;2022-07-22T11:24:29;1.15;;;0.50;;
55212;SDS011;41083;52.932;6.674;2022-07-22T11:26:55;0.17;;;0.10;;
55212;SDS011;41083;52.932;6.674;2022-07-22T11:31:58;0.65;;;0.30;;
55212;SDS011;41083;52.932;6.674;2022-07-22T11:34:25;0.88;;;0.17;;
55212;SDS011;41083;52.932;6.674;2022-07-22T11:36:51;0.75;;;0.30;;
55212;SDS011;41083;52.932;6.674;2022-07-22T11:39:25;0.85;;;0.32;;
55212;SDS011;41083;52.932;6.674;2022-07-22T11:41:53;0.30;;;0.22;;
55212;SDS011;41083;52.932;6.674;2022-07-22T11:44:20;0.88;;;0.32;;
55212;SDS011;41083;52.932;6.674;2022-07-22T11:46:46;0.55;;;0.32;;
55212;SDS011;41083;52.932;6.674;2022-07-22T11:49:13;0.52;;;0.30;;
55212;SDS011;41083;52.932;6.674;2022-07-22T11:51:41;1.10;;;0.50;;
55212;SDS011;41083;52.932;6.674;2022-07-22T11:54:07;1.25;;;0.40;;
55212;SDS011;41083;52.932;6.674;2022-07-22T11:56:33;0.55;;;0.38;;
55212;SDS011;41083;52.932;6.674;2022-07-22T11:59:00;0.75;;;0.30;;
55212;SDS011;41083;52.932;6.674;2022-07-22T12:01:30;1.35;;;0.40;;
55212;SDS011;41083;52.932;6.674;2022-07-22T12:04:01;0.65;;;0.30;;
55212;SDS011;41083;52.932;6.674;2022-07-22T12:06:32;0.32;;;0.22;;
55212;SDS011;41083;52.932;6.674;2022-07-22T12:09:09;0.63;;;0.35;;
55212;SDS011;41083;52.932;6.674;2022-07-22T12:11:41;1.38;;;0.50;;
55212;SDS011;41083;52.932;6.674;2022-07-22T12:14:10;1.17;;;0.50;;
55212;SDS011;41083;52.932;6.674;2022-07-22T12:16:38;0.40;;;0.30;;
55212;SDS011;41083;52.932;6.674;2022-07-22T12:19:06;0.80;;;0.30;;
55212;SDS011;41083;52.932;6.674;2022-07-22T12:21:55;1.10;;;0.65;;
55212;SDS011;41083;52.932;6.674;2022-07-22T12:24:28;0.73;;;0.35;;
55212;SDS011;41083;52.932;6.674;2022-07-22T12:27:08;0.93;;;0.30;;
55212;SDS011;41083;52.932;6.674;2022-07-22T12:32:02;1.25;;;0.43;;
55212;SDS011;41083;52.932;6.674;2022-07-22T12:34:30;0.32;;;0.22;;
55212;SDS011;41083;52.932;6.674;2022-07-22T12:40:37;0.30;;;0.20;;
55212;SDS011;41083;52.932;6.674;2022-07-22T12:43:07;0.90;;;0.20;;
55212;SDS011;41083;52.932;6.674;2022-07-22T12:45:33;0.93;;;0.30;;
55212;SDS011;41083;52.932;6.674;2022-07-22T12:55:24;0.52;;;0.30;;
55212;SDS011;41083;52.932;6.674;2022-07-22T12:57:51;0.70;;;0.40;;
55212;SDS011;41083;52.932;6.674;2022-07-22T13:00:21;0.70;;;0.40;;
55212;SDS011;41083;52.932;6.674;2022-07-22T13:02:57;0.93;;;0.40;;
55212;SDS011;41083;52.932;6.674;2022-07-22T13:05:24;0.93;;;0.40;;
55212;SDS011;41083;52.932;6.674;2022-07-22T13:07:50;0.45;;;0.30;;
55212;SDS011;41083;52.932;6.674;2022-07-22T13:10:19;0.95;;;0.30;;
55212;SDS011;41083;52.932;6.674;2022-07-22T13:12:48;0.68;;;0.30;;
55212;SDS011;41083;52.932;6.674;2022-07-22T13:15:14;0.98;;;0.40;;
55212;SDS011;41083;52.932;6.674;2022-07-22T13:17:41;0.63;;;0.32;;
55212;SDS011;41083;52.932;6.674;2022-07-22T13:20:07;0.47;;;0.40;;
55212;SDS011;41083;52.932;6.674;2022-07-22T13:22:34;0.82;;;0.43;;
55212;SDS011;41083;52.932;6.674;2022-07-22T13:25:00;0.75;;;0.35;;
55212;SDS011;41083;52.932;6.674;2022-07-22T13:27:25;0.98;;;0.43;;
55212;SDS011;41083;52.932;6.674;2022-07-22T13:29:51;1.38;;;0.40;;
55212;SDS011;41083;52.932;6.674;2022-07-22T13:32:17;0.80;;;0.30;;
55212;SDS011;41083;52.932;6.674;2022-07-22T13:34:42;0.32;;;0.10;;
55212;SDS011;41083;52.932;6.674;2022-07-22T13:37:08;0.57;;;0.28;;
55212;SDS011;41083;52.932;6.674;2022-07-22T13:39:35;0.60;;;0.30;;
55212;SDS011;41083;52.932;6.674;2022-07-22T13:42:00;0.52;;;0.30;;
55212;SDS011;41083;52.932;6.674;2022-07-22T13:44:26;0.75;;;0.30;;
55212;SDS011;41083;52.932;6.674;2022-07-22T13:46:51;0.98;;;0.32;;
55212;SDS011;41083;52.932;6.674;2022-07-22T13:49:17;0.60;;;0.30;;
55212;SDS011;41083;52.932;6.674;2022-07-22T13:51:43;0.40;;;0.30;;
55212;SDS011;41083;52.932;6.674;2022-07-22T13:54:08;0.55;;;0.20;;
55212;SDS011;41083;52.932;6.674;2022-07-22T13:56:34;1.23;;;0.55;;
55212;SDS011;41083;52.932;6.674;2022-07-22T13:59:00;1.05;;;0.45;;
55212;SDS011;41083;52.932;6.674;2022-07-22T14:01:27;0.88;;;0.30;;
55212;SDS011;41083;52.932;6.674;2022-07-22T14:03:53;0.28;;;0.20;;
55212;SDS011;41083;52.932;6.674;2022-07-22T14:06:19;0.20;;;0.20;;
55212;SDS011;41083;52.932;6.674;2022-07-22T14:08:44;0.98;;;0.25;;
55212;SDS011;41083;52.932;6.674;2022-07-22T14:11:10;0.63;;;0.32;;
55212;SDS011;41083;52.932;6.674;2022-07-22T14:13:35;0.85;;;0.25;;
55212;SDS011;41083;52.932;6.674;2022-07-22T14:16:01;0.40;;;0.20;;
55212;SDS011;41083;52.932;6.674;2022-07-22T14:18:47;0.70;;;0.22;;
55212;SDS011;41083;52.932;6.674;2022-07-22T14:21:13;0.55;;;0.20;;
55212;SDS011;41083;52.932;6.674;2022-07-22T14:23:38;0.10;;;0.10;;
55212;SDS011;41083;52.932;6.674;2022-07-22T14:26:04;0.88;;;0.38;;
55212;SDS011;41083;52.932;6.674;2022-07-22T14:28:30;1.75;;;0.40;;
55212;SDS011;41083;52.932;6.674;2022-07-22T14:30:56;0.98;;;0.30;;
55212;SDS011;41083;52.932;6.674;2022-07-22T14:33:22;0.35;;;0.10;;
55212;SDS011;41083;52.932;6.674;2022-07-22T14:35:47;0.40;;;0.20;;
55212;SDS011;41083;52.932;6.674;2022-07-22T14:38:13;0.43;;;0.15;;
55212;SDS011;41083;52.932;6.674;2022-07-22T14:40:39;0.30;;;0.20;;
55212;SDS011;41083;52.932;6.674;2022-07-22T14:43:04;0.82;;;0.28;;
55212;SDS011;41083;52.932;6.674;2022-07-22T14:45:30;1.42;;;0.25;;
55212;SDS011;41083;52.932;6.674;2022-07-22T14:47:55;1.00;;;0.30;;
55212;SDS011;41083;52.932;6.674;2022-07-22T14:50:21;0.43;;;0.20;;
55212;SDS011;41083;52.932;6.674;2022-07-22T14:52:47;0.40;;;0.13;;
55212;SDS011;41083;52.932;6.674;2022-07-22T14:55:13;1.13;;;0.28;;
55212;SDS011;41083;52.932;6.674;2022-07-22T14:57:38;0.90;;;0.20;;
55212;SDS011;41083;52.932;6.674;2022-07-22T15:00:04;1.17;;;0.30;;
55212;SDS011;41083;52.932;6.674;2022-07-22T15:02:30;1.02;;;0.25;;
55212;SDS011;41083;52.932;6.674;2022-07-22T15:04:56;0.52;;;0.30;;
55212;SDS011;41083;52.932;6.674;2022-07-22T15:07:22;0.88;;;0.40;;
55212;SDS011;41083;52.932;6.674;2022-07-22T15:09:47;0.20;;;0.20;;
55212;SDS011;41083;52.932;6.674;2022-07-22T15:12:13;3.75;;;0.30;;
55212;SDS011;41083;52.932;6.674;2022-07-22T15:14:39;0.40;;;0.22;;
55212;SDS011;41083;52.932;6.674;2022-07-22T15:17:04;1.13;;;0.47;;
55212;SDS011;41083;52.932;6.674;2022-07-22T15:19:30;0.75;;;0.30;;
55212;SDS011;41083;52.932;6.674;2022-07-22T15:21:56;2.55;;;0.30;;
55212;SDS011;41083;52.932;6.674;2022-07-22T15:24:21;0.38;;;0.20;;